createdAt,value
2019-03-23T08:57:03.486Z,84.29
2019-03-23T08:59:34.822Z,82.99
2019-03-23T09:02:06.282Z,83.68
2019-03-23T09:04:37.942Z,83.64
2019-03-23T09:07:09.388Z,86.40
2019-03-23T09:09:40.752Z,88.55
2019-03-23T09:12:12.297Z,88.54
2019-03-23T09:14:43.848Z,87.61
2019-03-23T09:17:15.513Z,86.46
2019-03-23T09:19:46.973Z,82.87
2019-03-23T09:22:18.519Z,82.29
2019-03-23T09:24:50.076Z,81.40
2019-03-23T09:27:21.524Z,80.43
2019-03-23T09:29:53.184Z,78.47
2019-03-23T09:32:24.640Z,80.07
2019-03-23T09:34:56.502Z,77.96
2019-03-23T09:37:27.953Z,78.42
2019-03-23T09:40:09.963Z,78.24
2019-03-23T09:42:32.897Z,76.07
2019-03-23T09:45:06.608Z,75.67
2019-03-23T09:47:37.968Z,75.05
2019-03-23T09:50:10.440Z,79.61
2019-03-23T09:52:41.788Z,84.45
2019-03-23T09:55:13.445Z,88.14
2019-03-23T09:57:44.798Z,89.14
2019-03-23T10:00:16.559Z,89.71
2019-03-23T10:02:47.953Z,87.70
2019-03-23T10:05:19.563Z,85.85
2019-03-23T10:07:50.857Z,86.60
2019-03-23T10:10:22.386Z,83.48
2019-03-23T10:12:53.929Z,81.17
2019-03-23T10:15:25.798Z,77.97
2019-03-23T10:17:57.243Z,77.34
2019-03-23T10:20:28.898Z,78.14
2019-03-23T10:23:00.258Z,77.09
2019-03-23T10:25:31.908Z,75.71
2019-03-23T10:28:03.366Z,74.63
2019-03-23T10:30:34.829Z,75.47
2019-03-23T10:33:06.265Z,75.05
2019-03-23T10:35:37.824Z,75.00
2019-03-23T10:38:09.484Z,74.18
2019-03-23T10:40:42.930Z,73.29
2019-03-23T10:43:13.884Z,73.79
2019-03-23T10:45:45.478Z,74.71
2019-03-23T10:48:17.032Z,74.94
2019-03-23T10:50:48.479Z,75.87
2019-03-23T10:53:23.185Z,75.51
2019-03-23T10:55:53.136Z,74.78
2019-03-23T10:58:24.504Z,73.33
2019-03-23T11:00:56.036Z,73.47
2019-03-23T11:03:27.490Z,73.55
2019-03-23T11:05:59.150Z,73.96
2019-03-23T11:08:30.511Z,72.37
2019-03-23T11:11:02.262Z,72.36
2019-03-23T11:13:33.808Z,73.91
2019-03-23T11:16:05.471Z,75.08
2019-03-23T11:18:37.886Z,75.03
2019-03-23T11:21:09.317Z,73.91
2019-03-23T11:23:40.755Z,74.28
2019-03-23T11:26:12.445Z,73.97
2019-03-23T11:28:43.866Z,73.85
2019-03-23T11:31:16.567Z,73.27
2019-03-23T11:33:48.107Z,72.55
2019-03-23T11:36:19.659Z,71.50
2019-03-23T11:38:50.894Z,71.89
2019-03-23T11:41:22.564Z,71.39
2019-03-23T11:43:54.432Z,71.25
2019-03-23T11:46:25.879Z,70.76
2019-03-23T11:48:57.231Z,69.87
2019-03-23T11:51:28.894Z,69.25
2019-03-23T11:54:00.237Z,69.01
2019-03-23T11:56:31.898Z,70.91
2019-03-23T11:59:03.273Z,69.71
2019-03-23T12:01:35.016Z,69.78
2019-03-23T12:04:06.489Z,67.79
2019-03-23T12:06:37.738Z,67.53
2019-03-23T12:09:09.266Z,66.95
2019-03-23T12:11:40.481Z,67.94
2019-03-23T12:14:12.172Z,68.10
2019-03-23T12:16:43.737Z,68.63
2019-03-23T12:19:15.388Z,68.38
2019-03-23T12:21:47.149Z,68.40
2019-03-23T12:24:18.802Z,67.80
2019-03-23T12:26:50.365Z,68.29
2019-03-23T12:29:21.832Z,68.32
2019-03-23T12:31:53.473Z,68.12
2019-03-23T12:34:25.022Z,68.42
2019-03-23T12:36:56.683Z,67.98
2019-03-23T12:39:28.340Z,66.91
2019-03-23T12:41:59.895Z,66.39
2019-03-23T12:44:31.553Z,65.33
2019-03-23T12:47:03.210Z,65.71
2019-03-23T12:49:34.871Z,66.32
2019-03-23T12:52:06.322Z,67.07
2019-03-23T12:54:37.982Z,66.48
2019-03-23T12:57:09.538Z,65.69
2019-03-23T12:59:41.198Z,64.90
2019-03-23T13:02:12.647Z,65.81
2019-03-23T13:04:44.310Z,66.36
2019-03-23T13:07:15.862Z,66.15
2019-03-23T13:09:47.214Z,65.38
2019-03-23T13:12:18.867Z,65.25
2019-03-23T13:14:50.222Z,65.28
2019-03-23T13:17:21.774Z,65.25
2019-03-23T13:19:53.339Z,64.64
2019-03-23T13:22:24.988Z,64.75
2019-03-23T13:24:56.443Z,65.89
2019-03-23T13:27:28.100Z,66.16
2019-03-23T13:30:02.008Z,66.40
2019-03-23T13:32:33.671Z,65.46
2019-03-23T13:35:05.738Z,65.66
2019-03-23T13:37:37.290Z,65.52
2019-03-23T13:40:10.789Z,64.41
2019-03-23T13:42:42.037Z,64.66
2019-03-23T13:45:13.492Z,65.20
2019-03-23T13:47:45.052Z,65.11
2019-03-23T13:50:27.348Z,65.45
2019-03-23T13:52:58.709Z,66.02
2019-03-23T13:55:33.427Z,66.59
2019-03-23T13:58:09.611Z,66.04
2019-03-23T14:00:42.068Z,66.36
2019-03-23T14:03:13.720Z,66.23
2019-03-23T14:05:45.173Z,66.51
2019-03-23T14:08:16.832Z,66.64
2019-03-23T14:10:48.491Z,66.86
2019-03-23T14:13:19.950Z,67.22
2019-03-23T14:15:51.805Z,67.62
2019-03-23T14:18:23.262Z,67.94
2019-03-23T14:20:55.019Z,67.09
2019-03-23T14:23:26.469Z,67.18
2019-03-23T14:25:58.127Z,67.25
2019-03-23T14:28:29.588Z,67.55
2019-03-23T14:31:01.445Z,67.72
2019-03-23T14:33:33.311Z,68.27
2019-03-23T14:36:04.877Z,68.02
2019-03-23T14:38:36.624Z,68.64
2019-03-23T14:41:08.301Z,69.19
2019-03-23T14:43:40.144Z,69.02
2019-03-23T14:46:11.908Z,68.40
2019-03-23T14:48:43.364Z,68.00
2019-03-23T14:51:15.117Z,67.66
2019-03-23T14:53:46.979Z,67.53
2019-03-23T14:56:18.434Z,67.65
2019-03-23T14:58:53.162Z,68.62
2019-03-23T15:01:24.721Z,68.57
2019-03-23T15:03:56.370Z,68.58
2019-03-23T15:06:27.857Z,69.32
2019-03-23T15:08:59.585Z,69.59
2019-03-23T15:11:31.171Z,69.03
2019-03-23T15:14:02.902Z,69.38
2019-03-23T15:16:34.458Z,69.48
2019-03-23T15:19:06.049Z,69.84
2019-03-23T15:21:37.776Z,69.98
2019-03-23T15:24:09.532Z,70.25
2019-03-23T15:26:41.294Z,70.07
2019-03-23T15:29:12.887Z,70.39
2019-03-23T15:31:44.616Z,70.45
2019-03-23T15:34:16.170Z,70.28
2019-03-23T15:36:47.719Z,70.67
2019-03-23T15:39:19.175Z,70.72
2019-03-23T15:41:51.035Z,70.69
2019-03-23T15:44:22.597Z,70.46
2019-03-23T15:46:54.351Z,70.45
2019-03-23T15:49:25.804Z,71.00
2019-03-23T15:51:57.360Z,72.37
2019-03-23T15:54:29.158Z,73.77
2019-03-23T15:57:00.873Z,74.12
2019-03-23T15:59:32.540Z,74.73
2019-03-23T16:02:04.202Z,75.02
2019-03-23T16:04:35.640Z,76.95
2019-03-23T16:07:07.213Z,78.19
2019-03-23T16:09:38.566Z,79.02
2019-03-23T16:12:10.114Z,79.32
2019-03-23T16:14:41.561Z,79.50
2019-03-23T16:17:13.114Z,79.43
2019-03-23T16:19:44.700Z,78.86
2019-03-23T16:22:16.439Z,78.40
2019-03-23T16:24:48.194Z,77.98
2019-03-23T16:27:19.678Z,77.32
2019-03-23T16:29:51.305Z,76.78
2019-03-23T16:32:22.860Z,76.75
2019-03-23T16:34:54.219Z,76.09
2019-03-23T16:37:26.077Z,75.73
2019-03-23T16:39:58.857Z,76.00
2019-03-23T16:42:30.617Z,75.79
2019-03-23T16:45:02.281Z,76.24
2019-03-23T16:47:33.946Z,74.94
2019-03-23T16:50:08.011Z,75.32
2019-03-23T16:52:39.516Z,74.74
2019-03-23T16:55:11.568Z,74.08
2019-03-23T16:57:43.124Z,73.95
2019-03-23T17:00:16.581Z,74.02
2019-03-23T17:02:50.763Z,74.63
2019-03-23T17:05:24.619Z,74.82
2019-03-23T17:07:58.480Z,75.65
2019-03-23T17:10:32.504Z,75.87
2019-03-23T17:13:06.606Z,76.08
2019-03-23T17:15:40.733Z,75.94
2019-03-23T17:18:14.725Z,75.37
2019-03-23T17:20:49.255Z,75.29
2019-03-23T17:23:23.149Z,75.12
2019-03-23T17:25:58.678Z,75.43
2019-03-23T17:28:32.651Z,74.83
2019-03-23T17:31:06.462Z,74.56
2019-03-23T17:33:40.734Z,74.65
2019-03-23T17:36:14.906Z,74.68
2019-03-23T17:38:50.735Z,73.97
2019-03-23T17:41:24.706Z,74.66
2019-03-23T17:43:58.921Z,74.34
2019-03-23T17:46:35.045Z,74.24
2019-03-23T17:49:10.179Z,74.71
2019-03-23T17:51:44.244Z,74.88
2019-03-23T17:54:18.542Z,74.57
2019-03-23T17:56:54.035Z,74.72
2019-03-23T17:59:28.479Z,74.47
2019-03-23T18:02:02.632Z,74.25
2019-03-23T18:04:36.711Z,74.17
2019-03-23T18:07:10.725Z,73.86
2019-03-23T18:09:45.044Z,73.85
2019-03-23T18:12:19.223Z,74.30
2019-03-23T18:14:53.441Z,74.42
2019-03-23T18:17:27.352Z,74.18
2019-03-23T18:20:01.880Z,74.36
2019-03-23T18:22:35.967Z,74.18
2019-03-23T18:25:12.481Z,74.30
2019-03-23T18:27:48.593Z,74.74
2019-03-23T18:30:36.977Z,74.17
2019-03-23T18:33:10.958Z,74.41
2019-03-23T18:35:48.175Z,74.49
2019-03-23T18:38:23.803Z,74.76
2019-03-23T18:40:57.987Z,74.97
2019-03-23T18:43:32.658Z,75.10
2019-03-23T18:46:08.307Z,75.24
2019-03-23T18:48:42.986Z,75.42
2019-03-23T18:51:17.828Z,75.38
2019-03-23T18:53:53.715Z,75.55
2019-03-23T18:56:27.718Z,75.79
2019-03-23T18:59:02.006Z,76.10
2019-03-23T19:01:36.040Z,76.37
2019-03-23T19:04:12.623Z,76.50
2019-03-23T19:06:49.403Z,76.73
2019-03-23T19:09:23.428Z,77.17
2019-03-23T19:11:57.673Z,77.60
2019-03-23T19:14:32.169Z,77.48
2019-03-23T19:17:06.429Z,77.88
2019-03-23T19:19:40.690Z,77.83
2019-03-23T19:22:15.038Z,77.64
2019-03-23T19:24:50.197Z,77.42
2019-03-23T19:27:24.593Z,77.71
2019-03-23T19:29:58.899Z,77.50
2019-03-23T19:32:33.257Z,77.98
2019-03-23T19:35:07.726Z,77.80
2019-03-23T19:37:42.228Z,77.57
2019-03-23T19:40:16.465Z,77.72
2019-03-23T19:42:50.569Z,77.77
2019-03-23T19:45:24.701Z,77.81
2019-03-23T19:47:58.687Z,77.68
2019-03-23T19:50:34.201Z,77.37
2019-03-23T19:53:08.054Z,77.54
2019-03-23T19:55:42.191Z,77.60
2019-03-23T19:58:16.431Z,77.70
2019-03-23T20:00:50.715Z,77.59
2019-03-23T20:03:25.001Z,77.73
2019-03-23T20:06:00.547Z,77.93
2019-03-23T20:08:34.567Z,78.24
2019-03-23T20:11:08.942Z,78.21
2019-03-23T20:13:43.050Z,78.08
2019-03-23T20:16:18.972Z,77.90
2019-03-23T20:18:53.855Z,77.72
2019-03-23T20:21:30.612Z,77.85
2019-03-23T20:24:04.848Z,78.02
2019-03-23T20:26:40.627Z,78.26
2019-03-23T20:29:15.097Z,78.15
2019-03-23T20:31:50.296Z,78.25
2019-03-23T20:34:24.330Z,78.26
2019-03-23T20:36:58.691Z,78.03
2019-03-23T20:39:32.627Z,78.15
2019-03-23T20:42:06.698Z,77.69
2019-03-23T20:44:40.683Z,77.30
2019-03-23T20:47:14.832Z,77.33
2019-03-23T20:49:48.968Z,77.27
2019-03-23T20:52:22.914Z,76.95
2019-03-23T20:54:56.882Z,77.07
2019-03-23T20:57:37.358Z,76.90
2019-03-23T21:00:08.784Z,76.71
2019-03-23T21:02:42.883Z,76.84
2019-03-23T21:05:16.983Z,76.71
2019-03-23T21:07:51.194Z,76.64
2019-03-23T21:10:26.028Z,76.60
2019-03-23T21:13:00.037Z,76.68
2019-03-23T21:15:33.965Z,76.67
2019-03-23T21:18:08.209Z,76.70
2019-03-23T21:20:42.217Z,76.73
2019-03-23T21:23:16.090Z,76.80
2019-03-23T21:25:50.332Z,76.85
2019-03-23T21:28:24.106Z,76.60
2019-03-23T21:30:57.660Z,76.73
2019-03-23T21:33:32.118Z,76.97
2019-03-23T21:36:05.425Z,77.00
2019-03-23T21:38:39.217Z,77.07
2019-03-23T21:41:11.225Z,76.95
2019-03-23T21:43:43.091Z,76.99
2019-03-23T21:46:14.841Z,76.98
2019-03-23T21:48:46.400Z,77.06
2019-03-23T21:51:18.152Z,76.89
2019-03-23T21:53:49.920Z,77.27
2019-03-23T21:56:21.470Z,77.40
2019-03-23T21:58:53.232Z,77.67
2019-03-23T22:01:24.689Z,77.90
2019-03-23T22:03:56.545Z,77.93
2019-03-23T22:06:28.412Z,78.40
2019-03-23T22:08:59.959Z,78.60
2019-03-23T22:11:31.626Z,79.05
2019-03-23T22:14:03.581Z,79.29
2019-03-23T22:16:36.673Z,79.20
2019-03-23T22:19:08.330Z,79.26
2019-03-23T22:21:40.202Z,79.14
2019-03-23T22:24:11.661Z,79.62
2019-03-23T22:26:43.614Z,79.65
2019-03-23T22:29:15.477Z,79.82
2019-03-23T22:31:47.041Z,79.84
2019-03-23T22:34:19.920Z,79.85
2019-03-23T22:36:51.578Z,80.14
2019-03-23T22:39:23.437Z,80.24
2019-03-23T22:41:54.889Z,80.79
2019-03-23T22:44:26.565Z,81.04
2019-03-23T22:46:59.328Z,81.32
2019-03-23T22:49:31.097Z,81.36
2019-03-23T22:52:02.611Z,81.74
2019-03-23T22:54:34.306Z,81.99
2019-03-23T22:57:05.862Z,82.32
2019-03-23T22:59:37.727Z,82.29
2019-03-23T23:02:09.391Z,82.68
2019-03-23T23:04:41.038Z,82.91
2019-03-23T23:07:12.799Z,83.03
2019-03-23T23:09:44.350Z,83.26
2019-03-23T23:12:16.113Z,83.45
2019-03-23T23:14:47.670Z,83.53
2019-03-23T23:17:19.428Z,83.56
2019-03-23T23:19:51.193Z,83.68
2019-03-23T23:22:22.677Z,83.67
2019-03-23T23:24:54.402Z,83.74
2019-03-23T23:27:25.966Z,83.75
2019-03-23T23:29:57.720Z,83.69
2019-03-23T23:32:29.378Z,83.91
2019-03-23T23:35:01.756Z,83.66
2019-03-23T23:37:33.512Z,83.43
2019-03-23T23:40:06.910Z,83.34
2019-03-23T23:42:38.366Z,83.18
2019-03-23T23:45:15.756Z,83.19
2019-03-23T23:47:44.029Z,83.04
2019-03-23T23:50:18.450Z,83.01
2019-03-23T23:52:50.325Z,82.96
2019-03-23T23:55:22.176Z,82.95
2019-03-23T23:57:53.733Z,83.33
